createdAt,value
2022-09-24T00:00:38.262Z,1010.92
2022-09-24T00:02:36.073Z,1010.91
2022-09-24T00:04:36.015Z,1010.91
2022-09-24T00:06:35.315Z,1011.01
2022-09-24T00:08:35.674Z,1011.01
2022-09-24T00:10:36.080Z,1010.9
2022-09-24T00:12:35.620Z,1010.9
2022-09-24T00:14:35.516Z,1010.98
2022-09-24T00:16:36.090Z,1010.98
2022-09-24T00:18:35.077Z,1010.91
2022-09-24T00:20:35.390Z,1010.91
2022-09-24T00:22:35.310Z,1010.84
2022-09-24T00:24:35.496Z,1010.84
2022-09-24T00:26:35.859Z,1010.92
2022-09-24T00:28:35.801Z,1010.92
2022-09-24T00:30:35.200Z,1010.96
2022-09-24T00:32:35.458Z,1010.96
2022-09-24T00:34:35.618Z,1010.87
2022-09-24T00:36:35.825Z,1010.87
2022-09-24T00:38:35.447Z,1010.91
2022-09-24T00:40:36.259Z,1010.91
2022-09-24T00:42:35.940Z,1010.88
2022-09-24T00:44:35.663Z,1010.88
2022-09-24T00:46:35.825Z,1010.79
2022-09-24T00:48:35.063Z,1010.79
2022-09-24T00:50:35.462Z,1010.76
2022-09-24T00:52:35.696Z,1010.76
2022-09-24T00:54:35.897Z,1010.77
2022-09-24T00:56:35.566Z,1010.77
2022-09-24T00:58:35.570Z,1010.71
2022-09-24T01:00:37.993Z,1010.71
2022-09-24T01:02:36.217Z,1010.72
2022-09-24T01:04:35.263Z,1010.72
2022-09-24T01:06:35.754Z,1010.72
2022-09-24T01:08:35.809Z,1010.72
2022-09-24T01:10:35.626Z,1010.65
2022-09-24T01:12:35.781Z,1010.65
2022-09-24T01:14:35.740Z,1010.58
2022-09-24T01:16:35.770Z,1010.58
2022-09-24T01:18:35.748Z,1010.62
2022-09-24T01:20:35.507Z,1010.62
2022-09-24T01:22:35.220Z,1010.41
2022-09-24T01:24:35.619Z,1010.41
2022-09-24T01:26:35.455Z,1010.52
2022-09-24T01:28:35.729Z,1010.52
2022-09-24T01:30:35.033Z,1010.47
2022-09-24T01:32:40.230Z,1010.47
2022-09-24T01:34:35.869Z,1010.61
2022-09-24T01:36:35.168Z,1010.61
2022-09-24T01:38:35.859Z,1010.53
2022-09-24T01:40:35.465Z,1010.53
2022-09-24T01:42:35.673Z,1010.41
2022-09-24T01:44:35.457Z,1010.41
2022-09-24T01:46:35.433Z,1010.41
2022-09-24T01:48:35.810Z,1010.41
2022-09-24T01:50:35.350Z,1010.37
2022-09-24T01:52:35.764Z,1010.37
2022-09-24T01:54:35.546Z,1010.24
2022-09-24T01:56:35.119Z,1010.24
2022-09-24T01:58:35.702Z,1010.3
2022-09-24T02:00:36.761Z,1010.3
2022-09-24T02:02:35.672Z,1010.15
2022-09-24T02:04:35.433Z,1010.15
2022-09-24T02:06:35.775Z,1010.19
2022-09-24T02:08:35.329Z,1010.16
2022-09-24T02:10:35.278Z,1010.16
2022-09-24T02:12:35.360Z,1010.16
2022-09-24T02:14:35.564Z,1010.16
2022-09-24T02:16:35.893Z,1010.06
2022-09-24T02:18:35.865Z,1010.06
2022-09-24T02:20:35.257Z,1010.05
2022-09-24T02:22:35.599Z,1010.05
2022-09-24T02:24:35.124Z,1010.15
2022-09-24T02:26:35.052Z,1010.15
2022-09-24T02:28:35.527Z,1009.99
2022-09-24T02:30:35.886Z,1009.99
2022-09-24T02:32:35.701Z,1009.87
2022-09-24T02:34:35.953Z,1009.87
2022-09-24T02:36:35.897Z,1010.02
2022-09-24T02:38:40.107Z,1010.02
2022-09-24T02:40:35.641Z,1010.03
2022-09-24T02:42:35.513Z,1010.03
2022-09-24T02:44:35.863Z,1010.09
2022-09-24T02:46:35.475Z,1010.09
2022-09-24T02:48:35.592Z,1010.11
2022-09-24T02:50:35.528Z,1010.11
2022-09-24T02:52:35.670Z,1010.07
2022-09-24T02:54:36.011Z,1010.07
2022-09-24T02:56:35.188Z,1010.13
2022-09-24T02:58:35.212Z,1010.13
2022-09-24T03:00:37.825Z,1010.12
2022-09-24T03:02:36.156Z,1010.12
2022-09-24T03:04:35.586Z,1010.13
2022-09-24T03:06:35.025Z,1010.13
2022-09-24T03:08:35.352Z,1010.17
2022-09-24T03:10:35.811Z,1010.17
2022-09-24T03:12:35.218Z,1010.13
2022-09-24T03:14:35.513Z,1010.13
2022-09-24T03:16:35.434Z,1010.06
2022-09-24T03:18:35.734Z,1010.06
2022-09-24T03:20:35.638Z,1009.99
2022-09-24T03:22:35.892Z,1009.99
2022-09-24T03:24:35.853Z,1009.98
2022-09-24T03:26:35.383Z,1009.98
2022-09-24T03:28:35.621Z,1010.11
2022-09-24T03:30:35.025Z,1010.11
2022-09-24T03:32:35.629Z,1010.05
2022-09-24T03:34:35.995Z,1010.05
2022-09-24T03:36:35.716Z,1010.06
2022-09-24T03:38:35.211Z,1010.06
2022-09-24T03:40:36.338Z,1010.01
2022-09-24T03:42:35.967Z,1010.01
2022-09-24T03:44:35.531Z,1010.09
2022-09-24T03:46:35.800Z,1010.09
2022-09-24T03:48:36.073Z,1010.11
2022-09-24T03:50:35.798Z,1010.11
2022-09-24T03:52:35.276Z,1010.26
2022-09-24T03:54:36.150Z,1010.26
2022-09-24T03:56:35.465Z,1010.35
2022-09-24T03:58:35.182Z,1010.35
2022-09-24T04:00:41.121Z,1010.35
2022-09-24T04:02:36.093Z,1010.35
2022-09-24T04:04:35.969Z,1010.39
2022-09-24T04:06:37.418Z,1010.39
2022-09-24T04:08:35.867Z,1010.24
2022-09-24T04:10:35.573Z,1010.24
2022-09-24T04:12:35.779Z,1010.25
2022-09-24T04:14:35.520Z,1010.25
2022-09-24T04:16:35.587Z,1010.15
2022-09-24T04:18:39.209Z,1010.15
2022-09-24T04:20:35.843Z,1010.1
2022-09-24T04:22:35.583Z,1010.1
2022-09-24T04:24:35.877Z,1010.11
2022-09-24T04:26:36.262Z,1010.11
2022-09-24T04:28:35.638Z,1010.08
2022-09-24T04:30:35.750Z,1010.08
2022-09-24T04:32:35.236Z,1010.04
2022-09-24T04:34:35.497Z,1010.04
2022-09-24T04:36:35.716Z,1010.01
2022-09-24T04:38:35.222Z,1010.01
2022-09-24T04:40:36.288Z,1010
2022-09-24T04:42:35.670Z,1010
2022-09-24T04:44:35.985Z,1009.96
2022-09-24T04:46:35.692Z,1009.96
2022-09-24T04:48:35.190Z,1010.09
2022-09-24T04:50:36.150Z,1010.09
2022-09-24T04:52:35.431Z,1009.99
2022-09-24T04:54:35.868Z,1009.99
2022-09-24T04:56:35.061Z,1010.08
2022-09-24T04:58:35.552Z,1010.08
2022-09-24T05:00:38.635Z,1010.15
2022-09-24T05:02:43.686Z,1010.15
2022-09-24T05:04:35.198Z,1010.25
2022-09-24T05:06:35.391Z,1010.25
2022-09-24T05:08:35.729Z,1010.16
2022-09-24T05:10:35.791Z,1010.16
2022-09-24T05:12:36.171Z,1010.15
2022-09-24T05:14:35.853Z,1010.15
2022-09-24T05:16:36.228Z,1010.2
2022-09-24T05:18:35.385Z,1010.2
2022-09-24T05:20:35.153Z,1010.12
2022-09-24T05:22:35.073Z,1010.12
2022-09-24T05:24:35.840Z,1010.22
2022-09-24T05:26:35.893Z,1010.22
2022-09-24T05:28:35.112Z,1010.22
2022-09-24T05:30:35.354Z,1010.24
2022-09-24T05:32:35.144Z,1010.24
2022-09-24T05:34:35.320Z,1010.22
2022-09-24T05:36:35.037Z,1010.22
2022-09-24T05:38:35.327Z,1010.31
2022-09-24T05:40:36.133Z,1010.31
2022-09-24T05:42:35.381Z,1010.3
2022-09-24T05:44:35.370Z,1010.3
2022-09-24T05:46:36.147Z,1010.3
2022-09-24T05:48:35.373Z,1010.3
2022-09-24T05:50:35.596Z,1010.41
2022-09-24T05:52:35.932Z,1010.41
2022-09-24T05:54:35.706Z,1010.46
2022-09-24T05:56:35.965Z,1010.46
2022-09-24T05:58:35.278Z,1010.59
2022-09-24T06:00:40.697Z,1010.59
2022-09-24T06:02:35.756Z,1010.48
2022-09-24T06:04:42.457Z,1010.48
2022-09-24T06:06:35.748Z,1010.62
2022-09-24T06:08:36.008Z,1010.62
2022-09-24T06:10:35.908Z,1010.66
2022-09-24T06:12:35.967Z,1010.66
2022-09-24T06:14:35.733Z,1010.59
2022-09-24T06:16:35.763Z,1010.59
2022-09-24T06:18:35.015Z,1010.77
2022-09-24T06:20:35.881Z,1010.77
2022-09-24T06:22:40.202Z,1010.83
2022-09-24T06:24:35.414Z,1010.83
2022-09-24T06:26:35.067Z,1010.8
2022-09-24T06:28:35.853Z,1010.8
2022-09-24T06:30:35.379Z,1010.74
2022-09-24T06:32:35.589Z,1010.74
2022-09-24T06:34:35.246Z,1010.9
2022-09-24T06:36:35.349Z,1010.9
2022-09-24T06:38:35.765Z,1010.93
2022-09-24T06:40:37.465Z,1010.93
2022-09-24T06:42:35.915Z,1010.98
2022-09-24T06:44:35.094Z,1010.98
2022-09-24T06:46:35.951Z,1010.96
2022-09-24T06:48:35.963Z,1010.96
2022-09-24T06:50:35.408Z,1011.07
2022-09-24T06:52:35.795Z,1011.07
2022-09-24T06:54:35.594Z,1011
2022-09-24T06:56:35.468Z,1011
2022-09-24T06:58:35.609Z,1011.16
2022-09-24T07:00:37.674Z,1011.16
2022-09-24T07:02:35.597Z,1011.17
2022-09-24T07:04:35.642Z,1011.17
2022-09-24T07:06:35.953Z,1011.21
2022-09-24T07:08:35.160Z,1011.21
2022-09-24T07:10:35.519Z,1011.26
2022-09-24T07:12:35.662Z,1011.26
2022-09-24T07:14:35.098Z,1011.3
2022-09-24T07:16:35.953Z,1011.3
2022-09-24T07:18:35.236Z,1011.4
2022-09-24T07:20:35.793Z,1011.4
2022-09-24T07:22:35.732Z,1011.27
2022-09-24T07:24:35.893Z,1011.27
2022-09-24T07:26:35.503Z,1011.39
2022-09-24T07:28:35.872Z,1011.39
2022-09-24T07:30:35.164Z,1011.43
2022-09-24T07:32:41.282Z,1011.43
2022-09-24T07:34:35.725Z,1011.44
2022-09-24T07:36:35.925Z,1011.44
2022-09-24T07:38:35.334Z,1011.41
2022-09-24T07:40:35.669Z,1011.41
2022-09-24T07:42:35.050Z,1011.41
2022-09-24T07:44:35.105Z,1011.41
2022-09-24T07:46:36.357Z,1011.61
2022-09-24T07:48:35.875Z,1011.61
2022-09-24T07:50:35.392Z,1011.65
2022-09-24T07:52:35.535Z,1011.65
2022-09-24T07:54:39.858Z,1011.62
2022-09-24T07:56:35.794Z,1011.62
2022-09-24T07:58:35.529Z,1011.64
2022-09-24T08:00:37.541Z,1011.64
2022-09-24T08:02:36.130Z,1011.64
2022-09-24T08:04:36.381Z,1011.64
2022-09-24T08:06:38.854Z,1011.64
2022-09-24T08:08:35.082Z,1011.64
2022-09-24T08:10:35.140Z,1011.67
2022-09-24T08:12:35.733Z,1011.67
2022-09-24T08:14:35.682Z,1011.63
2022-09-24T08:16:36.006Z,1011.63
2022-09-24T08:18:35.694Z,1011.64
2022-09-24T08:20:35.190Z,1011.64
2022-09-24T08:22:35.704Z,1011.71
2022-09-24T08:24:35.948Z,1011.71
2022-09-24T08:26:35.302Z,1011.66
2022-09-24T08:28:35.790Z,1011.66
2022-09-24T08:30:35.723Z,1011.95
2022-09-24T08:32:35.816Z,1011.95
2022-09-24T08:34:35.391Z,1011.94
2022-09-24T08:36:38.378Z,1011.94
2022-09-24T08:38:35.624Z,1011.9
2022-09-24T08:40:35.770Z,1011.9
2022-09-24T08:42:35.737Z,1011.92
2022-09-24T08:44:35.665Z,1011.92
2022-09-24T08:46:35.643Z,1011.97
2022-09-24T08:48:34.996Z,1011.97
2022-09-24T08:50:36.136Z,1011.95
2022-09-24T08:52:35.098Z,1011.99
2022-09-24T08:54:35.632Z,1011.99
2022-09-24T08:56:35.615Z,1012.06
2022-09-24T08:58:39.248Z,1012.06
2022-09-24T09:00:38.420Z,1012.08
2022-09-24T09:02:36.181Z,1012.08
2022-09-24T09:04:35.774Z,1012.01
2022-09-24T09:06:35.288Z,1012.01
2022-09-24T09:09:18.606Z,1012.09
2022-09-24T09:10:35.277Z,1012.09
2022-09-24T09:12:36.003Z,1012.07
2022-09-24T09:14:42.288Z,1012.07
2022-09-24T09:16:36.105Z,1012.16
2022-09-24T09:18:35.218Z,1012.16
2022-09-24T09:20:35.097Z,1012.3
2022-09-24T09:22:35.671Z,1012.3
2022-09-24T09:24:35.051Z,1012.29
2022-09-24T09:26:35.245Z,1012.29
2022-09-24T09:28:35.078Z,1012.28
2022-09-24T09:30:37.002Z,1012.28
2022-09-24T09:32:35.681Z,1012.38
2022-09-24T09:34:35.743Z,1012.38
2022-09-24T09:36:35.452Z,1012.34
2022-09-24T09:38:35.933Z,1012.34
2022-09-24T09:40:42.808Z,1012.42
2022-09-24T09:42:35.605Z,1012.42
2022-09-24T09:44:35.805Z,1012.44
2022-09-24T09:46:35.430Z,1012.44
2022-09-24T09:48:35.671Z,1012.5
2022-09-24T09:50:35.175Z,1012.5
2022-09-24T09:52:35.238Z,1012.6
2022-09-24T09:54:35.480Z,1012.6
2022-09-24T09:56:35.738Z,1012.5
2022-09-24T09:58:34.991Z,1012.5
2022-09-24T10:00:38.149Z,1012.38
2022-09-24T10:02:36.041Z,1012.38
2022-09-24T10:04:35.136Z,1012.44
2022-09-24T10:06:35.717Z,1012.44
2022-09-24T10:08:35.902Z,1012.47
2022-09-24T10:10:35.380Z,1012.47
2022-09-24T10:12:35.804Z,1012.45
2022-09-24T10:14:35.449Z,1012.45
2022-09-24T10:16:36.014Z,1012.37
2022-09-24T10:18:35.317Z,1012.37
2022-09-24T10:20:35.524Z,1012.56
2022-09-24T10:22:35.561Z,1012.56
2022-09-24T10:24:35.267Z,1012.42
2022-09-24T10:26:38.671Z,1012.42
2022-09-24T10:28:35.429Z,1012.45
2022-09-24T10:30:35.721Z,1012.45
2022-09-24T10:32:35.892Z,1012.51
2022-09-24T10:34:35.415Z,1012.51
2022-09-24T10:36:35.902Z,1012.53
2022-09-24T10:38:35.126Z,1012.53
2022-09-24T10:40:35.524Z,1012.58
2022-09-24T10:42:35.972Z,1012.58
2022-09-24T10:44:35.271Z,1012.55
2022-09-24T10:46:36.281Z,1012.55
2022-09-24T10:48:35.499Z,1012.57
2022-09-24T10:50:35.799Z,1012.57
2022-09-24T10:52:35.265Z,1012.66
2022-09-24T10:54:35.636Z,1012.66
2022-09-24T10:56:35.755Z,1012.66
2022-09-24T10:58:36.000Z,1012.66
2022-09-24T11:00:37.800Z,1012.65
2022-09-24T11:02:36.712Z,1012.65
2022-09-24T11:04:38.904Z,1012.68
2022-09-24T11:06:35.099Z,1012.68
2022-09-24T11:08:35.913Z,1012.69
2022-09-24T11:10:35.754Z,1012.69
2022-09-24T11:12:35.398Z,1012.59
2022-09-24T11:14:35.945Z,1012.59
2022-09-24T11:16:36.047Z,1012.69
2022-09-24T11:18:35.607Z,1012.69
2022-09-24T11:20:36.157Z,1012.7
2022-09-24T11:22:35.496Z,1012.7
2022-09-24T11:24:35.275Z,1012.67
2022-09-24T11:26:36.015Z,1012.67
2022-09-24T11:28:35.828Z,1012.8
2022-09-24T11:30:35.340Z,1012.8
2022-09-24T11:32:35.483Z,1012.78
2022-09-24T11:34:36.179Z,1012.78
2022-09-24T11:36:35.547Z,1012.85
2022-09-24T11:38:35.484Z,1012.85
2022-09-24T11:40:36.514Z,1012.88
2022-09-24T11:42:35.132Z,1012.88
2022-09-24T11:44:35.631Z,1012.91
2022-09-24T11:46:35.697Z,1012.91
2022-09-24T11:48:35.128Z,1012.82
2022-09-24T11:50:35.454Z,1012.82
2022-09-24T11:52:35.164Z,1012.81
2022-09-24T11:54:36.689Z,1012.81
2022-09-24T11:56:36.235Z,1012.76
2022-09-24T11:58:35.948Z,1012.76
2022-09-24T12:00:37.821Z,1012.97
2022-09-24T12:02:36.108Z,1012.97
2022-09-24T12:04:35.774Z,1012.84
2022-09-24T12:06:35.402Z,1012.84
2022-09-24T12:08:35.063Z,1012.87
2022-09-24T12:10:35.346Z,1012.87
2022-09-24T12:12:35.302Z,1012.8
2022-09-24T12:14:35.708Z,1012.77
2022-09-24T12:16:36.103Z,1012.77
2022-09-24T12:18:35.885Z,1012.85
2022-09-24T12:20:35.194Z,1012.85
2022-09-24T12:22:35.594Z,1012.77
2022-09-24T12:24:37.422Z,1012.77
2022-09-24T12:26:35.799Z,1012.74
2022-09-24T12:28:35.690Z,1012.74
2022-09-24T12:30:35.477Z,1012.84
2022-09-24T12:32:35.555Z,1012.84
2022-09-24T12:34:36.001Z,1012.81
2022-09-24T12:36:35.945Z,1012.81
2022-09-24T12:38:36.041Z,1012.85
2022-09-24T12:40:36.306Z,1012.85
2022-09-24T12:42:35.014Z,1012.83
2022-09-24T12:44:40.921Z,1012.83
2022-09-24T12:46:36.559Z,1012.76
2022-09-24T12:48:35.113Z,1012.76
2022-09-24T12:50:35.915Z,1012.74
2022-09-24T12:52:35.281Z,1012.74
2022-09-24T12:54:35.785Z,1012.81
2022-09-24T12:56:35.732Z,1012.81
2022-09-24T12:58:35.286Z,1012.83
2022-09-24T13:00:38.809Z,1012.83
2022-09-24T13:02:36.011Z,1012.9
2022-09-24T13:04:35.673Z,1012.9
2022-09-24T13:06:35.646Z,1012.8
2022-09-24T13:08:35.594Z,1012.8
2022-09-24T13:10:35.997Z,1012.89
2022-09-24T13:12:35.511Z,1012.89
2022-09-24T13:14:35.687Z,1012.9
2022-09-24T13:16:35.975Z,1012.9
2022-09-24T13:18:35.990Z,1012.96
2022-09-24T13:20:36.307Z,1012.96
2022-09-24T13:22:35.466Z,1012.91
2022-09-24T13:24:35.717Z,1012.91
2022-09-24T13:26:35.744Z,1012.96
2022-09-24T13:28:38.818Z,1012.96
2022-09-24T13:30:36.166Z,1012.83
2022-09-24T13:32:35.256Z,1012.83
2022-09-24T13:34:35.675Z,1012.81
2022-09-24T13:36:35.759Z,1012.81
2022-09-24T13:38:35.582Z,1012.91
2022-09-24T13:40:35.531Z,1012.91
2022-09-24T13:42:35.800Z,1012.99
2022-09-24T13:44:35.945Z,1012.99
2022-09-24T13:46:35.417Z,1013.04
2022-09-24T13:48:35.445Z,1013.04
2022-09-24T13:50:35.781Z,1013.02
2022-09-24T13:52:35.738Z,1013.02
2022-09-24T13:54:35.031Z,1012.95
2022-09-24T13:56:35.250Z,1012.95
2022-09-24T13:58:35.146Z,1013.04
2022-09-24T14:00:37.903Z,1013.04
2022-09-24T14:02:35.675Z,1013.01
2022-09-24T14:04:35.442Z,1013.01
2022-09-24T14:06:35.091Z,1013.05
2022-09-24T14:08:35.762Z,1013.05
2022-09-24T14:10:35.222Z,1013.12
2022-09-24T14:12:35.212Z,1013.12
2022-09-24T14:14:35.536Z,1013.08
2022-09-24T14:16:35.856Z,1013.08
2022-09-24T14:18:35.649Z,1013.1
2022-09-24T14:20:35.678Z,1013.1
2022-09-24T14:22:35.690Z,1013.03
2022-09-24T14:24:35.909Z,1013.03
2022-09-24T14:26:35.082Z,1013.22
2022-09-24T14:28:34.923Z,1013.22
2022-09-24T14:30:35.625Z,1013.2
2022-09-24T14:32:35.901Z,1013.2
2022-09-24T14:34:35.029Z,1013.06
2022-09-24T14:36:35.215Z,1013.06
2022-09-24T14:38:35.086Z,1013.12
2022-09-24T14:40:37.004Z,1013.12
2022-09-24T14:42:35.307Z,1013.09
2022-09-24T14:44:35.932Z,1013.09
2022-09-24T14:46:36.260Z,1013.12
2022-09-24T14:48:35.030Z,1013.12
2022-09-24T14:50:35.533Z,1013.16
2022-09-24T14:52:35.079Z,1013.16
2022-09-24T14:54:35.952Z,1013.18
2022-09-24T14:56:35.175Z,1013.18
2022-09-24T14:58:35.554Z,1013.23
2022-09-24T15:00:36.207Z,1013.23
2022-09-24T15:02:35.612Z,1013.32
2022-09-24T15:04:35.269Z,1013.32
2022-09-24T15:06:35.638Z,1013.35
2022-09-24T15:08:35.025Z,1013.35
2022-09-24T15:10:35.697Z,1013.27
2022-09-24T15:12:35.948Z,1013.27
2022-09-24T15:14:35.453Z,1013.38
2022-09-24T15:16:36.122Z,1013.38
2022-09-24T15:18:34.935Z,1013.21
2022-09-24T15:20:35.426Z,1013.21
2022-09-24T15:22:35.775Z,1013.29
2022-09-24T15:24:35.381Z,1013.29
2022-09-24T15:26:35.671Z,1013.23
2022-09-24T15:28:35.121Z,1013.23
2022-09-24T15:30:35.485Z,1013.3
2022-09-24T15:32:35.791Z,1013.3
2022-09-24T15:34:42.220Z,1013.37
2022-09-24T15:36:35.828Z,1013.29
2022-09-24T15:38:35.128Z,1013.29
2022-09-24T15:40:36.040Z,1013.29
2022-09-24T15:42:35.296Z,1013.29
2022-09-24T15:44:41.168Z,1013.38
2022-09-24T15:46:35.878Z,1013.38
2022-09-24T15:48:35.429Z,1013.3
2022-09-24T15:50:35.190Z,1013.3
2022-09-24T15:52:35.912Z,1013.37
2022-09-24T15:54:35.095Z,1013.37
2022-09-24T15:56:35.255Z,1013.55
2022-09-24T15:58:41.884Z,1013.55
2022-09-24T16:00:38.131Z,1013.39
2022-09-24T16:02:35.772Z,1013.39
2022-09-24T16:04:35.801Z,1013.51
2022-09-24T16:06:35.849Z,1013.51
2022-09-24T16:08:34.912Z,1013.51
2022-09-24T16:10:35.411Z,1013.51
2022-09-24T16:12:35.931Z,1013.43
2022-09-24T16:14:35.860Z,1013.43
2022-09-24T16:16:39.541Z,1013.61
2022-09-24T16:18:35.551Z,1013.61
2022-09-24T16:20:35.610Z,1013.57
2022-09-24T16:22:40.658Z,1013.57
2022-09-24T16:24:35.726Z,1013.62
2022-09-24T16:26:35.659Z,1013.62
2022-09-24T16:28:35.835Z,1013.52
2022-09-24T16:30:38.418Z,1013.52
2022-09-24T16:32:35.676Z,1013.68
2022-09-24T16:34:35.945Z,1013.68
2022-09-24T16:36:35.066Z,1013.69
2022-09-24T16:38:35.344Z,1013.69
2022-09-24T16:40:35.505Z,1013.73
2022-09-24T16:42:35.423Z,1013.73
2022-09-24T16:44:35.891Z,1013.83
2022-09-24T16:46:42.345Z,1013.83
2022-09-24T16:48:35.873Z,1013.86
2022-09-24T16:50:35.028Z,1013.86
2022-09-24T16:52:36.048Z,1013.82
2022-09-24T16:54:35.993Z,1013.82
2022-09-24T16:56:35.067Z,1013.92
2022-09-24T16:58:35.926Z,1013.92
2022-09-24T17:00:37.832Z,1014.02
2022-09-24T17:02:36.256Z,1014.02
2022-09-24T17:04:35.262Z,1014.03
2022-09-24T17:06:35.612Z,1014.03
2022-09-24T17:08:35.383Z,1013.96
2022-09-24T17:10:36.068Z,1013.96
2022-09-24T17:12:36.100Z,1013.98
2022-09-24T17:14:35.361Z,1013.98
2022-09-24T17:16:36.078Z,1014.18
2022-09-24T17:18:35.288Z,1014.18
2022-09-24T17:20:35.106Z,1014.1
2022-09-24T17:22:35.469Z,1014.1
2022-09-24T17:24:37.896Z,1014.27
2022-09-24T17:26:35.226Z,1014.27
2022-09-24T17:28:35.355Z,1014.31
2022-09-24T17:30:35.710Z,1014.31
2022-09-24T17:32:35.277Z,1014.25
2022-09-24T17:34:35.797Z,1014.25
2022-09-24T17:36:35.381Z,1014.32
2022-09-24T17:38:35.375Z,1014.32
2022-09-24T17:40:36.146Z,1014.39
2022-09-24T17:42:35.910Z,1014.39
2022-09-24T17:44:35.877Z,1014.39
2022-09-24T17:46:37.981Z,1014.39
2022-09-24T17:48:35.195Z,1014.36
2022-09-24T17:50:35.444Z,1014.36
2022-09-24T17:52:35.383Z,1014.36
2022-09-24T17:54:35.979Z,1014.36
2022-09-24T17:56:35.068Z,1014.51
2022-09-24T17:58:35.858Z,1014.51
2022-09-24T18:00:38.526Z,1014.55
2022-09-24T18:02:36.136Z,1014.55
2022-09-24T18:04:35.991Z,1014.48
2022-09-24T18:06:35.218Z,1014.48
2022-09-24T18:08:35.034Z,1014.68
2022-09-24T18:10:35.350Z,1014.68
2022-09-24T18:12:39.860Z,1014.73
2022-09-24T18:14:35.149Z,1014.73
2022-09-24T18:16:35.802Z,1014.75
2022-09-24T18:18:35.142Z,1014.75
2022-09-24T18:20:35.659Z,1014.68
2022-09-24T18:22:35.937Z,1014.68
2022-09-24T18:24:35.342Z,1014.77
2022-09-24T18:26:35.466Z,1014.77
2022-09-24T18:28:41.114Z,1014.73
2022-09-24T18:30:35.533Z,1014.73
2022-09-24T18:32:35.447Z,1014.75
2022-09-24T18:34:36.018Z,1014.75
2022-09-24T18:36:35.264Z,1014.92
2022-09-24T18:38:35.954Z,1014.92
2022-09-24T18:40:35.424Z,1014.79
2022-09-24T18:42:35.724Z,1014.79
2022-09-24T18:44:35.395Z,1014.84
2022-09-24T18:46:36.586Z,1014.84
2022-09-24T18:48:35.192Z,1014.85
2022-09-24T18:50:36.525Z,1014.85
2022-09-24T18:52:35.195Z,1014.92
2022-09-24T18:54:35.537Z,1014.92
2022-09-24T18:56:35.357Z,1014.99
2022-09-24T18:58:35.301Z,1014.99
2022-09-24T19:00:39.684Z,1015
2022-09-24T19:02:36.856Z,1015.05
2022-09-24T19:04:39.366Z,1015.05
2022-09-24T19:06:35.244Z,1015.06
2022-09-24T19:08:35.790Z,1015.06
2022-09-24T19:10:35.269Z,1015.02
2022-09-24T19:12:35.664Z,1015.02
2022-09-24T19:14:35.261Z,1015.09
2022-09-24T19:16:36.208Z,1015.09
2022-09-24T19:18:35.399Z,1014.96
2022-09-24T19:20:35.901Z,1014.96
2022-09-24T19:22:35.805Z,1015.07
2022-09-24T19:24:35.366Z,1015.07
2022-09-24T19:26:36.031Z,1015.13
2022-09-24T19:28:35.707Z,1015.13
2022-09-24T19:30:35.943Z,1015.08
2022-09-24T19:32:35.243Z,1015.08
2022-09-24T19:34:35.589Z,1015.23
2022-09-24T19:36:42.207Z,1015.23
2022-09-24T19:38:35.460Z,1015.32
2022-09-24T19:40:35.622Z,1015.32
2022-09-24T19:42:35.160Z,1015.33
2022-09-24T19:44:42.502Z,1015.33
2022-09-24T19:46:36.291Z,1015.26
2022-09-24T19:48:35.450Z,1015.26
2022-09-24T19:50:40.209Z,1015.2
2022-09-24T19:52:35.395Z,1015.2
2022-09-24T19:54:35.719Z,1015.28
2022-09-24T19:56:35.359Z,1015.28
2022-09-24T19:58:35.252Z,1015.28
2022-09-24T20:00:38.200Z,1015.28
2022-09-24T20:02:35.900Z,1015.27
2022-09-24T20:04:35.257Z,1015.27
2022-09-24T20:06:35.494Z,1015.25
2022-09-24T20:08:35.517Z,1015.25
2022-09-24T20:10:35.925Z,1015.34
2022-09-24T20:12:35.506Z,1015.34
2022-09-24T20:14:35.988Z,1015.38
2022-09-24T20:16:36.029Z,1015.38
2022-09-24T20:18:35.710Z,1015.4
2022-09-24T20:20:36.392Z,1015.4
2022-09-24T20:22:40.063Z,1015.45
2022-09-24T20:24:36.322Z,1015.45
2022-09-24T20:26:35.848Z,1015.46
2022-09-24T20:28:37.115Z,1015.46
2022-09-24T20:30:35.907Z,1015.49
2022-09-24T20:32:35.389Z,1015.49
2022-09-24T20:34:35.989Z,1015.48
2022-09-24T20:36:39.151Z,1015.48
2022-09-24T20:38:35.963Z,1015.46
2022-09-24T20:40:36.540Z,1015.46
2022-09-24T20:42:37.742Z,1015.54
2022-09-24T20:44:35.170Z,1015.54
2022-09-24T20:46:36.508Z,1015.46
2022-09-24T20:48:35.178Z,1015.46
2022-09-24T20:50:35.841Z,1015.52
2022-09-24T20:52:35.671Z,1015.52
2022-09-24T20:54:36.507Z,1015.46
2022-09-24T20:56:36.099Z,1015.46
2022-09-24T20:58:35.822Z,1015.52
2022-09-24T21:00:39.345Z,1015.52
2022-09-24T21:02:41.138Z,1015.41
2022-09-24T21:04:36.214Z,1015.41
2022-09-24T21:06:36.138Z,1015.45
2022-09-24T21:08:41.220Z,1015.45
2022-09-24T21:10:35.856Z,1015.43
2022-09-24T21:12:35.802Z,1015.43
2022-09-24T21:14:36.365Z,1015.45
2022-09-24T21:16:37.563Z,1015.45
2022-09-24T21:19:03.659Z,1015.45
2022-09-24T21:20:35.675Z,1015.45
2022-09-24T21:22:35.908Z,1015.64
2022-09-24T21:24:42.151Z,1015.64
2022-09-24T21:26:35.524Z,1015.67
2022-09-24T21:28:35.640Z,1015.67
2022-09-24T21:30:35.757Z,1015.65
2022-09-24T21:32:35.652Z,1015.65
2022-09-24T21:34:36.000Z,1015.56
2022-09-24T21:36:39.847Z,1015.56
2022-09-24T21:38:35.682Z,1015.56
2022-09-24T21:40:36.105Z,1015.56
2022-09-24T21:42:35.605Z,1015.66
2022-09-24T21:44:35.689Z,1015.66
2022-09-24T21:46:35.983Z,1015.7
2022-09-24T21:48:35.380Z,1015.7
2022-09-24T21:50:39.660Z,1015.62
2022-09-24T21:52:35.081Z,1015.62
2022-09-24T21:54:35.871Z,1015.62
2022-09-24T21:56:35.073Z,1015.62
2022-09-24T21:58:35.107Z,1015.59
2022-09-24T22:00:42.844Z,1015.59
2022-09-24T22:02:37.919Z,1015.64
2022-09-24T22:04:35.257Z,1015.64
2022-09-24T22:06:35.578Z,1015.63
2022-09-24T22:08:35.573Z,1015.63
2022-09-24T22:10:35.894Z,1015.63
2022-09-24T22:12:35.423Z,1015.63
2022-09-24T22:14:35.778Z,1015.56
2022-09-24T22:16:36.069Z,1015.56
2022-09-24T22:18:35.167Z,1015.5
2022-09-24T22:20:35.829Z,1015.5
2022-09-24T22:22:35.038Z,1015.62
2022-09-24T22:24:35.628Z,1015.62
2022-09-24T22:26:35.109Z,1015.64
2022-09-24T22:28:38.831Z,1015.66
2022-09-24T22:30:35.302Z,1015.66
2022-09-24T22:32:35.156Z,1015.62
2022-09-24T22:34:35.346Z,1015.62
2022-09-24T22:36:35.965Z,1015.55
2022-09-24T22:38:35.963Z,1015.55
2022-09-24T22:40:35.890Z,1015.63
2022-09-24T22:42:35.700Z,1015.63
2022-09-24T22:44:35.693Z,1015.57
2022-09-24T22:46:36.513Z,1015.57
2022-09-24T22:48:35.877Z,1015.67
2022-09-24T22:50:35.983Z,1015.67
2022-09-24T22:52:35.205Z,1015.65
2022-09-24T22:54:35.665Z,1015.65
2022-09-24T22:56:35.869Z,1015.62
2022-09-24T22:58:35.757Z,1015.62
2022-09-24T23:00:38.407Z,1015.67
2022-09-24T23:02:36.075Z,1015.67
2022-09-24T23:04:36.025Z,1015.79
2022-09-24T23:06:35.516Z,1015.79
2022-09-24T23:08:35.932Z,1015.48
2022-09-24T23:10:36.047Z,1015.48
2022-09-24T23:12:35.514Z,1015.61
2022-09-24T23:14:35.205Z,1015.61
2022-09-24T23:16:35.471Z,1015.55
2022-09-24T23:18:35.909Z,1015.55
2022-09-24T23:20:35.493Z,1015.6
2022-09-24T23:22:35.922Z,1015.6
2022-09-24T23:24:35.427Z,1015.67
2022-09-24T23:26:39.349Z,1015.67
2022-09-24T23:28:35.649Z,1015.6
2022-09-24T23:30:35.754Z,1015.6
2022-09-24T23:32:35.339Z,1015.52
2022-09-24T23:34:35.363Z,1015.52
2022-09-24T23:36:35.097Z,1015.55
2022-09-24T23:38:35.501Z,1015.55
2022-09-24T23:40:35.454Z,1015.56
2022-09-24T23:42:35.728Z,1015.56
2022-09-24T23:44:36.045Z,1015.59
2022-09-24T23:46:35.756Z,1015.59
2022-09-24T23:48:35.767Z,1015.62
2022-09-24T23:50:35.426Z,1015.62
2022-09-24T23:52:35.702Z,1015.61
2022-09-24T23:54:35.086Z,1015.61
2022-09-24T23:56:35.183Z,1015.5
2022-09-24T23:58:35.837Z,1015.5
